createdAt,value
2018-11-10T00:01:24.900Z,81.49
2018-11-10T00:03:56.073Z,81.07
2018-11-10T00:06:26.755Z,82.62
2018-11-10T00:08:57.216Z,83.26
2018-11-10T00:11:27.917Z,84.53
2018-11-10T00:13:58.509Z,84.17
2018-11-10T00:16:29.183Z,84.36
2018-11-10T00:19:00.018Z,84.06
2018-11-10T00:21:30.715Z,84.21
2018-11-10T00:24:01.419Z,82.58
2018-11-10T00:26:32.969Z,82.14
2018-11-10T00:29:03.665Z,81.31
2018-11-10T00:31:34.470Z,81.73
2018-11-10T00:34:06.039Z,82.02
2018-11-10T00:36:36.995Z,82.08
2018-11-10T00:39:09.744Z,81.47
2018-11-10T00:41:40.920Z,80.79
2018-11-10T00:44:12.272Z,80.73
2018-11-10T00:46:43.920Z,81.33
2018-11-10T00:49:14.652Z,81.44
2018-11-10T00:51:45.300Z,81.29
2018-11-10T00:54:17.788Z,81.06
2018-11-10T00:56:48.611Z,81.15
2018-11-10T00:59:19.815Z,80.70
2018-11-10T01:01:51.551Z,81.28
2018-11-10T01:04:22.573Z,80.93
2018-11-10T01:06:53.792Z,81.85
2018-11-10T01:09:24.741Z,81.48
2018-11-10T01:11:55.851Z,81.30
2018-11-10T01:14:26.457Z,82.41
2018-11-10T01:16:57.225Z,81.36
2018-11-10T01:19:28.023Z,81.70
2018-11-10T01:21:58.687Z,80.36
2018-11-10T01:24:29.559Z,80.54
2018-11-10T01:27:00.348Z,79.93
2018-11-10T01:29:31.045Z,81.31
2018-11-10T01:32:02.036Z,80.99
2018-11-10T01:34:33.507Z,80.94
2018-11-10T01:37:05.022Z,82.17
2018-11-10T01:39:36.777Z,80.97
2018-11-10T01:42:07.998Z,81.28
2018-11-10T01:44:39.305Z,81.86
2018-11-10T01:47:10.289Z,81.31
2018-11-10T01:49:40.953Z,80.83
2018-11-10T01:52:11.559Z,80.77
2018-11-10T01:54:42.152Z,81.93
2018-11-10T01:57:12.795Z,80.96
2018-11-10T01:59:43.465Z,81.26
2018-11-10T02:02:14.136Z,83.00
2018-11-10T02:04:44.902Z,82.04
2018-11-10T02:07:15.861Z,82.58
2018-11-10T02:09:46.946Z,83.63
2018-11-10T02:12:17.625Z,83.69
2018-11-10T02:14:49.223Z,82.58
2018-11-10T02:17:20.236Z,82.12
2018-11-10T02:19:51.252Z,82.49
2018-11-10T02:22:22.300Z,81.35
2018-11-10T02:24:53.331Z,82.34
2018-11-10T02:27:24.993Z,81.97
2018-11-10T02:29:56.277Z,82.17
2018-11-10T02:32:27.916Z,84.37
2018-11-10T02:34:58.795Z,84.80
2018-11-10T02:37:29.580Z,85.42
2018-11-10T02:40:00.196Z,86.17
2018-11-10T02:42:30.805Z,86.36
2018-11-10T02:45:01.471Z,86.90
2018-11-10T02:47:32.292Z,87.12
2018-11-10T02:50:02.996Z,86.64
2018-11-10T02:52:33.787Z,87.07
2018-11-10T02:55:04.931Z,87.11
2018-11-10T02:57:35.631Z,87.95
2018-11-10T03:00:09.083Z,88.13
2018-11-10T03:02:40.005Z,88.20
2018-11-10T03:05:11.395Z,87.50
2018-11-10T03:07:42.674Z,86.22
2018-11-10T03:10:13.427Z,86.22
2018-11-10T03:12:45.124Z,86.31
2018-11-10T03:15:16.122Z,83.71
2018-11-10T03:17:46.971Z,83.18
2018-11-10T03:20:17.875Z,82.95
2018-11-10T03:22:49.417Z,83.44
2018-11-10T03:25:20.190Z,82.97
2018-11-10T03:27:51.055Z,82.49
2018-11-10T03:30:21.732Z,82.96
2018-11-10T03:32:52.867Z,82.94
2018-11-10T03:35:23.591Z,82.65
2018-11-10T03:37:54.434Z,83.28
2018-11-10T03:40:25.404Z,82.80
2018-11-10T03:42:56.027Z,82.97
2018-11-10T03:45:26.723Z,83.26
2018-11-10T03:47:57.378Z,82.71
2018-11-10T03:50:27.993Z,83.82
2018-11-10T03:52:59.056Z,82.77
2018-11-10T03:55:29.759Z,83.14
2018-11-10T03:58:00.508Z,82.38
2018-11-10T04:00:31.335Z,82.16
2018-11-10T04:03:02.077Z,83.04
2018-11-10T04:05:32.748Z,83.49
2018-11-10T04:08:03.335Z,84.74
2018-11-10T04:10:34.678Z,84.48
2018-11-10T04:13:05.527Z,84.82
2018-11-10T04:15:36.295Z,85.27
2018-11-10T04:18:07.528Z,86.08
2018-11-10T04:20:38.112Z,86.11
2018-11-10T04:23:08.846Z,86.49
2018-11-10T04:25:39.499Z,86.77
2018-11-10T04:28:10.131Z,86.61
2018-11-10T04:30:40.735Z,86.52
2018-11-10T04:33:11.587Z,85.58
2018-11-10T04:35:42.263Z,85.14
2018-11-10T04:38:13.871Z,84.86
2018-11-10T04:40:44.764Z,83.71
2018-11-10T04:43:15.651Z,83.51
2018-11-10T04:45:47.111Z,84.85
2018-11-10T04:48:18.799Z,85.14
2018-11-10T04:50:51.600Z,86.20
2018-11-10T04:53:23.140Z,86.52
2018-11-10T04:55:54.582Z,85.35
2018-11-10T04:58:25.842Z,86.29
2018-11-10T05:00:57.779Z,86.09
2018-11-10T05:03:28.503Z,84.66
2018-11-10T05:05:59.291Z,84.17
2018-11-10T05:08:30.051Z,83.74
2018-11-10T05:11:00.700Z,83.32
2018-11-10T05:13:31.283Z,84.17
2018-11-10T05:16:02.459Z,83.77
2018-11-10T05:18:33.070Z,84.15
2018-11-10T05:21:03.807Z,84.08
2018-11-10T05:23:34.386Z,84.50
2018-11-10T05:26:05.163Z,84.93
2018-11-10T05:28:35.805Z,85.10
2018-11-10T05:31:08.456Z,85.39
2018-11-10T05:33:39.606Z,84.62
2018-11-10T05:36:10.260Z,84.57
2018-11-10T05:38:40.984Z,84.18
2018-11-10T05:41:11.560Z,84.52
2018-11-10T05:43:42.339Z,84.32
2018-11-10T05:46:13.179Z,85.05
2018-11-10T05:48:43.751Z,85.13
2018-11-10T05:51:14.419Z,84.46
2018-11-10T05:53:45.083Z,84.64
2018-11-10T05:56:16.024Z,84.74
2018-11-10T05:58:46.780Z,84.79
2018-11-10T06:01:18.241Z,85.04
2018-11-10T06:03:48.852Z,84.22
2018-11-10T06:06:20.567Z,83.99
2018-11-10T06:08:53.084Z,83.77
2018-11-10T06:11:24.285Z,83.84
2018-11-10T06:13:55.657Z,84.48
2018-11-10T06:16:26.347Z,84.41
2018-11-10T06:18:58.342Z,83.62
2018-11-10T06:21:29.075Z,83.61
2018-11-10T06:23:59.755Z,83.70
2018-11-10T06:26:32.300Z,83.25
2018-11-10T06:29:03.000Z,83.29
2018-11-10T06:31:34.751Z,83.28
2018-11-10T06:34:06.011Z,83.68
2018-11-10T06:36:36.989Z,83.42
2018-11-10T06:39:10.528Z,83.93
2018-11-10T06:41:42.079Z,83.38
2018-11-10T06:44:12.671Z,83.44
2018-11-10T06:46:43.244Z,83.34
2018-11-10T06:49:13.815Z,84.03
2018-11-10T06:51:44.424Z,83.28
2018-11-10T06:54:15.011Z,83.32
2018-11-10T06:56:47.444Z,83.80
2018-11-10T06:59:18.194Z,83.14
2018-11-10T07:01:48.914Z,83.67
2018-11-10T07:04:19.632Z,83.93
2018-11-10T07:06:50.244Z,83.40
2018-11-10T07:09:20.942Z,83.20
2018-11-10T07:11:51.723Z,84.33
2018-11-10T07:14:22.581Z,83.38
2018-11-10T07:16:53.165Z,84.10
2018-11-10T07:19:23.923Z,84.04
2018-11-10T07:21:54.694Z,83.61
2018-11-10T07:24:25.305Z,83.84
2018-11-10T07:26:57.068Z,83.69
2018-11-10T07:29:28.207Z,83.17
2018-11-10T07:31:58.917Z,83.39
2018-11-10T07:34:29.767Z,83.72
2018-11-10T07:37:00.423Z,83.43
2018-11-10T07:39:31.140Z,83.16
2018-11-10T07:42:01.784Z,83.59
2018-11-10T07:44:32.504Z,83.56
2018-11-10T07:47:03.338Z,83.18
2018-11-10T07:49:34.409Z,82.98
2018-11-10T07:52:07.492Z,83.71
2018-11-10T07:54:39.254Z,83.46
2018-11-10T07:57:10.637Z,82.91
2018-11-10T07:59:41.520Z,82.99
2018-11-10T08:02:12.203Z,82.88
2018-11-10T08:04:45.904Z,82.85
2018-11-10T08:07:16.513Z,82.44
2018-11-10T08:09:47.247Z,81.77
2018-11-10T08:12:18.675Z,82.80
2018-11-10T08:14:50.634Z,82.55
2018-11-10T08:17:21.228Z,82.84
2018-11-10T08:19:52.043Z,82.67
2018-11-10T08:22:23.311Z,82.94
2018-11-10T08:24:54.065Z,82.14
2018-11-10T08:27:25.554Z,82.41
2018-11-10T08:29:56.764Z,82.88
2018-11-10T08:32:27.755Z,82.37
2018-11-10T08:34:58.787Z,82.39
2018-11-10T08:37:30.540Z,82.45
2018-11-10T08:40:01.653Z,82.58
2018-11-10T08:42:32.228Z,82.24
2018-11-10T08:45:02.868Z,82.71
2018-11-10T08:47:33.615Z,82.04
2018-11-10T08:50:04.587Z,81.89
2018-11-10T08:52:35.575Z,81.44
2018-11-10T08:55:07.625Z,81.43
2018-11-10T08:57:38.322Z,81.30
2018-11-10T09:00:10.421Z,81.30
2018-11-10T09:02:41.114Z,81.67
2018-11-10T09:05:12.593Z,81.01
2018-11-10T09:07:43.546Z,81.12
2018-11-10T09:10:15.116Z,81.05
2018-11-10T09:12:46.089Z,80.84
2018-11-10T09:15:17.854Z,80.89
2018-11-10T09:17:49.162Z,80.57
2018-11-10T09:20:20.129Z,80.82
2018-11-10T09:22:52.337Z,80.48
2018-11-10T09:25:25.380Z,81.18
2018-11-10T09:27:56.030Z,80.71
2018-11-10T09:30:31.594Z,80.50
2018-11-10T09:33:02.308Z,80.68
2018-11-10T09:35:33.181Z,80.53
2018-11-10T09:38:03.843Z,80.70
2018-11-10T09:40:34.581Z,80.73
2018-11-10T09:43:06.628Z,80.75
2018-11-10T09:45:37.607Z,80.13
2018-11-10T09:48:08.323Z,80.30
2018-11-10T09:50:39.128Z,80.31
2018-11-10T09:53:09.920Z,80.16
2018-11-10T09:55:40.533Z,80.49
2018-11-10T09:58:11.472Z,79.99
2018-11-10T10:00:42.140Z,79.29
2018-11-10T10:03:12.940Z,78.78
2018-11-10T10:05:43.688Z,78.23
2018-11-10T10:08:15.584Z,78.62
2018-11-10T10:10:46.164Z,78.39
2018-11-10T10:13:17.112Z,77.21
2018-11-10T10:15:47.841Z,76.91
2018-11-10T10:18:18.884Z,76.00
2018-11-10T10:20:49.208Z,75.77
2018-11-10T10:23:20.166Z,76.49
2018-11-10T10:25:50.856Z,77.45
2018-11-10T10:28:21.689Z,77.08
2018-11-10T10:30:52.636Z,76.54
2018-11-10T10:33:23.271Z,76.68
2018-11-10T10:35:54.109Z,74.80
2018-11-10T10:38:24.739Z,74.07
2018-11-10T10:40:55.475Z,73.88
2018-11-10T10:43:26.156Z,74.35
2018-11-10T10:45:57.541Z,72.77
2018-11-10T10:48:28.220Z,71.93
2018-11-10T10:50:59.108Z,71.77
2018-11-10T10:53:29.918Z,71.54
2018-11-10T10:56:00.630Z,72.03
2018-11-10T10:58:31.548Z,70.94
2018-11-10T11:01:14.212Z,69.49
2018-11-10T11:04:54.668Z,67.76
2018-11-10T11:07:26.520Z,67.06
2018-11-10T11:09:57.571Z,66.62
2018-11-10T11:12:28.244Z,65.82
2018-11-10T11:14:59.045Z,65.76
2018-11-10T11:17:29.797Z,65.25
2018-11-10T11:20:00.423Z,65.25
2018-11-10T11:22:31.580Z,64.28
2018-11-10T11:25:02.344Z,64.50
2018-11-10T11:27:32.976Z,63.43
2018-11-10T11:30:04.621Z,63.92
2018-11-10T11:32:35.504Z,62.80
2018-11-10T11:35:09.867Z,62.21
2018-11-10T11:37:41.472Z,62.85
2018-11-10T11:40:15.472Z,62.46
2018-11-10T11:42:46.856Z,61.78
2018-11-10T11:45:19.155Z,61.32
2018-11-10T11:47:50.389Z,61.28
2018-11-10T11:50:21.889Z,60.10
2018-11-10T11:52:52.968Z,60.86
2018-11-10T11:55:24.533Z,60.60
2018-11-10T11:57:56.055Z,60.61
2018-11-10T12:00:26.952Z,61.11
2018-11-10T12:02:58.080Z,61.17
2018-11-10T12:05:30.605Z,61.24
2018-11-10T12:08:02.259Z,60.94
2018-11-10T12:10:34.329Z,60.58
2018-11-10T12:13:05.075Z,60.33
2018-11-10T12:15:36.675Z,59.93
2018-11-10T12:18:07.475Z,60.05
2018-11-10T12:20:38.402Z,60.70
2018-11-10T12:23:09.022Z,61.58
2018-11-10T12:25:39.768Z,62.40
2018-11-10T12:28:10.538Z,61.86
2018-11-10T12:30:41.173Z,61.18
2018-11-10T12:33:13.145Z,59.22
2018-11-10T12:35:43.865Z,59.07
2018-11-10T12:38:14.759Z,59.74
2018-11-10T12:40:45.476Z,60.06
2018-11-10T12:43:16.788Z,59.23
2018-11-10T12:45:47.604Z,60.54
2018-11-10T12:48:19.050Z,62.00
2018-11-10T12:50:50.057Z,62.06
2018-11-10T12:53:21.004Z,60.30
2018-11-10T12:55:53.112Z,60.02
2018-11-10T12:58:23.908Z,60.91
2018-11-10T13:00:56.690Z,61.29
2018-11-10T13:03:28.109Z,61.01
2018-11-10T13:05:58.891Z,60.33
2018-11-10T13:08:29.599Z,59.73
2018-11-10T13:11:00.305Z,59.23
2018-11-10T13:13:31.047Z,60.97
2018-11-10T13:16:02.402Z,60.44
2018-11-10T13:18:33.082Z,60.09
2018-11-10T13:21:03.895Z,60.51
2018-11-10T13:23:34.732Z,60.76
2018-11-10T13:26:05.640Z,60.24
2018-11-10T13:28:36.232Z,60.10
2018-11-10T13:31:07.502Z,59.85
2018-11-10T13:33:38.988Z,60.14
2018-11-10T13:36:09.589Z,61.63
2018-11-10T13:38:40.658Z,61.82
2018-11-10T13:41:11.611Z,62.03
2018-11-10T13:43:42.620Z,62.75
2018-11-10T13:46:13.324Z,62.42
2018-11-10T13:48:44.308Z,62.57
2018-11-10T13:51:15.423Z,62.80
2018-11-10T13:53:45.998Z,63.41
2018-11-10T13:56:16.633Z,63.54
2018-11-10T13:58:47.707Z,63.92
2018-11-10T14:01:18.307Z,64.37
2018-11-10T14:03:49.117Z,63.66
2018-11-10T14:06:19.866Z,64.36
2018-11-10T14:08:50.487Z,64.46
2018-11-10T14:11:21.214Z,64.66
2018-11-10T14:13:51.787Z,64.31
2018-11-10T14:16:22.515Z,64.98
2018-11-10T14:18:53.138Z,64.50
2018-11-10T14:21:24.147Z,64.83
2018-11-10T14:23:55.014Z,65.35
2018-11-10T14:26:26.129Z,64.43
2018-11-10T14:28:56.836Z,64.07
2018-11-10T14:31:27.578Z,64.69
2018-11-10T14:33:58.205Z,64.53
2018-11-10T14:36:29.688Z,64.84
2018-11-10T14:39:00.882Z,64.61
2018-11-10T14:41:33.382Z,64.26
2018-11-10T14:44:04.256Z,64.96
2018-11-10T14:46:35.829Z,64.44
2018-11-10T14:49:07.373Z,64.41
2018-11-10T14:51:38.272Z,64.57
2018-11-10T14:54:08.889Z,65.13
2018-11-10T14:56:39.843Z,65.10
2018-11-10T14:59:10.561Z,64.91
2018-11-10T15:01:41.444Z,64.60
2018-11-10T15:04:12.176Z,65.44
2018-11-10T15:06:43.135Z,65.50
2018-11-10T15:09:13.791Z,65.89
2018-11-10T15:11:44.704Z,66.61
2018-11-10T15:14:15.594Z,67.27
2018-11-10T15:16:46.436Z,67.43
2018-11-10T15:19:17.161Z,67.51
2018-11-10T15:21:47.800Z,67.55
2018-11-10T15:24:18.416Z,67.97
2018-11-10T15:26:49.323Z,68.07
2018-11-10T15:29:19.905Z,67.87
2018-11-10T15:31:51.164Z,68.39
2018-11-10T15:34:22.276Z,67.42
2018-11-10T15:36:54.760Z,67.71
2018-11-10T15:39:26.108Z,68.19
2018-11-10T15:41:57.048Z,67.89
2018-11-10T15:44:28.179Z,67.51
2018-11-10T15:46:59.883Z,67.78
2018-11-10T15:49:31.212Z,68.33
2018-11-10T15:52:03.721Z,68.31
2018-11-10T15:54:37.277Z,69.15
2018-11-10T15:57:08.328Z,69.31
2018-11-10T15:59:39.277Z,69.94
2018-11-10T16:02:09.900Z,70.15
2018-11-10T16:04:40.377Z,70.32
2018-11-10T16:07:11.119Z,70.23
2018-11-10T16:09:41.845Z,70.49
2018-11-10T16:12:12.685Z,70.93
2018-11-10T16:14:43.351Z,70.59
2018-11-10T16:17:13.971Z,70.81
2018-11-10T16:19:45.501Z,70.59
2018-11-10T16:22:16.089Z,70.46
2018-11-10T16:24:46.721Z,70.74
2018-11-10T16:27:17.403Z,71.37
2018-11-10T16:29:48.051Z,71.42
2018-11-10T16:32:18.681Z,71.66
2018-11-10T16:34:49.350Z,71.78
2018-11-10T16:37:20.129Z,71.55
2018-11-10T16:39:51.039Z,71.15
2018-11-10T16:42:21.656Z,70.99
2018-11-10T16:44:52.315Z,71.16
2018-11-10T16:47:23.060Z,71.58
2018-11-10T16:49:53.652Z,71.64
2018-11-10T16:52:25.537Z,71.72
2018-11-10T16:54:56.348Z,71.60
2018-11-10T16:57:28.249Z,71.82
2018-11-10T16:59:59.077Z,72.30
2018-11-10T17:02:30.417Z,71.96
2018-11-10T17:05:01.092Z,72.03
2018-11-10T17:07:32.300Z,71.98
2018-11-10T17:10:04.023Z,71.87
2018-11-10T17:12:34.711Z,71.74
2018-11-10T17:15:05.720Z,71.91
2018-11-10T17:17:36.389Z,71.68
2018-11-10T17:20:10.545Z,71.85
2018-11-10T17:22:41.549Z,71.84
2018-11-10T17:25:15.043Z,72.21
2018-11-10T17:27:52.508Z,72.02
2018-11-10T17:30:23.344Z,72.15
2018-11-10T17:32:54.069Z,72.15
2018-11-10T17:35:25.864Z,72.53
2018-11-10T17:37:56.625Z,72.56
2018-11-10T17:40:27.564Z,72.15
2018-11-10T17:42:58.363Z,72.94
2018-11-10T17:45:29.059Z,72.84
2018-11-10T17:47:59.388Z,72.63
2018-11-10T17:50:30.107Z,72.56
2018-11-10T17:53:00.888Z,72.83
2018-11-10T17:55:31.591Z,73.36
2018-11-10T17:58:02.205Z,73.32
2018-11-10T18:00:32.825Z,73.51
2018-11-10T18:03:03.712Z,73.18
2018-11-10T18:05:34.525Z,73.49
2018-11-10T18:08:05.996Z,73.32
2018-11-10T18:10:36.591Z,73.64
2018-11-10T18:13:07.864Z,73.73
2018-11-10T18:15:38.759Z,73.75
2018-11-10T18:18:09.433Z,73.60
2018-11-10T18:20:40.203Z,73.64
2018-11-10T18:23:11.088Z,73.88
2018-11-10T18:25:41.744Z,74.14
2018-11-10T18:28:12.392Z,74.56
2018-11-10T18:30:43.084Z,74.32
2018-11-10T18:33:13.821Z,74.53
2018-11-10T18:35:44.463Z,74.75
2018-11-10T18:38:15.200Z,74.61
2018-11-10T18:40:45.816Z,74.48
2018-11-10T18:43:16.572Z,74.43
2018-11-10T18:45:47.295Z,74.41
2018-11-10T18:48:17.980Z,74.30
2018-11-10T18:50:48.847Z,74.08
2018-11-10T18:53:19.577Z,74.33
2018-11-10T18:55:50.364Z,74.94
2018-11-10T18:58:21.193Z,75.00
2018-11-10T19:00:51.992Z,74.73
2018-11-10T19:03:23.245Z,74.21
2018-11-10T19:05:53.919Z,74.15
2018-11-10T19:08:24.704Z,73.89
2018-11-10T19:10:55.528Z,73.31
2018-11-10T19:13:26.175Z,73.59
2018-11-10T19:15:57.075Z,73.33
2018-11-10T19:18:27.843Z,73.60
2018-11-10T19:20:58.725Z,73.68
2018-11-10T19:23:30.529Z,72.92
2018-11-10T19:26:02.609Z,72.70
2018-11-10T19:28:35.106Z,73.12
2018-11-10T19:31:06.124Z,72.65
2018-11-10T19:33:37.539Z,72.71
2018-11-10T19:36:08.649Z,72.80
2018-11-10T19:38:40.435Z,72.68
2018-11-10T19:41:12.527Z,72.72
2018-11-10T19:43:43.543Z,72.43
2018-11-10T19:46:14.451Z,72.75
2018-11-10T19:48:45.331Z,72.92
2018-11-10T19:51:17.328Z,72.82
2018-11-10T19:53:48.052Z,72.95
2018-11-10T19:56:18.767Z,72.89
2018-11-10T19:58:49.498Z,72.87
2018-11-10T20:01:21.316Z,73.50
2018-11-10T20:03:52.024Z,73.54
2018-11-10T20:06:22.932Z,73.52
2018-11-10T20:08:53.856Z,73.74
2018-11-10T20:11:24.598Z,73.79
2018-11-10T20:13:55.278Z,73.78
2018-11-10T20:16:26.145Z,73.46
2018-11-10T20:18:57.092Z,73.67
2018-11-10T20:21:27.855Z,73.85
2018-11-10T20:23:58.636Z,74.37
2018-11-10T20:26:29.313Z,74.68
2018-11-10T20:28:59.939Z,74.44
2018-11-10T20:31:30.773Z,74.49
2018-11-10T20:34:01.373Z,74.75
2018-11-10T20:36:32.050Z,74.19
2018-11-10T20:39:02.860Z,74.73
2018-11-10T20:41:33.484Z,74.17
2018-11-10T20:44:04.145Z,74.09
2018-11-10T20:46:34.828Z,74.29
2018-11-10T20:49:05.805Z,74.51
2018-11-10T20:51:36.549Z,74.28
2018-11-10T20:54:07.799Z,73.89
2018-11-10T20:56:38.530Z,73.32
2018-11-10T20:59:09.418Z,72.97
2018-11-10T21:01:40.429Z,73.13
2018-11-10T21:04:11.213Z,73.40
2018-11-10T21:06:42.172Z,74.14
2018-11-10T21:09:13.639Z,74.36
2018-11-10T21:11:44.427Z,74.80
2018-11-10T21:14:15.061Z,75.11
2018-11-10T21:16:46.739Z,74.99
2018-11-10T21:19:19.428Z,75.06
2018-11-10T21:21:51.676Z,75.48
2018-11-10T21:24:23.212Z,75.26
2018-11-10T21:26:54.406Z,75.80
2018-11-10T21:29:25.168Z,75.52
2018-11-10T21:31:57.544Z,75.37
2018-11-10T21:34:28.328Z,74.88
2018-11-10T21:37:00.370Z,74.18
2018-11-10T21:39:31.180Z,74.21
2018-11-10T21:42:04.128Z,74.70
2018-11-10T21:44:35.306Z,74.90
2018-11-10T21:47:07.029Z,74.77
2018-11-10T21:49:37.747Z,74.91
2018-11-10T21:52:08.448Z,75.57
2018-11-10T21:54:38.891Z,76.00
2018-11-10T21:57:09.323Z,75.92
2018-11-10T21:59:39.992Z,75.47
2018-11-10T22:02:10.741Z,76.21
2018-11-10T22:04:41.612Z,75.96
2018-11-10T22:07:12.456Z,76.26
2018-11-10T22:09:44.051Z,76.34
2018-11-10T22:12:15.115Z,75.66
2018-11-10T22:14:45.861Z,76.18
2018-11-10T22:17:16.670Z,76.15
2018-11-10T22:19:47.554Z,77.12
2018-11-10T22:22:18.311Z,77.24
2018-11-10T22:24:49.192Z,77.60
2018-11-10T22:27:19.979Z,77.21
2018-11-10T22:29:50.632Z,76.98
2018-11-10T22:32:21.271Z,77.56
2018-11-10T22:34:51.973Z,77.73
2018-11-10T22:37:22.676Z,77.86
2018-11-10T22:39:55.652Z,77.57
2018-11-10T22:42:26.613Z,77.32
2018-11-10T22:44:57.343Z,77.27
2018-11-10T22:47:28.092Z,76.69
2018-11-10T22:49:58.841Z,77.06
2018-11-10T22:52:31.100Z,76.49
2018-11-10T22:55:01.793Z,76.21
2018-11-10T22:57:32.679Z,75.73
2018-11-10T23:00:04.683Z,75.61
2018-11-10T23:02:36.819Z,74.80
2018-11-10T23:05:08.347Z,75.29
2018-11-10T23:07:41.114Z,74.99
2018-11-10T23:10:11.557Z,75.42
2018-11-10T23:12:43.001Z,74.92
2018-11-10T23:15:14.544Z,75.60
2018-11-10T23:17:45.565Z,75.75
2018-11-10T23:20:17.492Z,76.16
2018-11-10T23:22:48.410Z,76.24
2018-11-10T23:25:20.007Z,75.89
2018-11-10T23:27:50.749Z,76.29
2018-11-10T23:30:22.696Z,76.30
2018-11-10T23:32:53.351Z,76.74
2018-11-10T23:35:24.052Z,76.57
2018-11-10T23:37:54.745Z,76.53
2018-11-10T23:40:25.336Z,76.60
2018-11-10T23:42:56.282Z,76.57
2018-11-10T23:45:27.202Z,76.24
2018-11-10T23:47:57.953Z,76.52
2018-11-10T23:50:28.671Z,76.21
2018-11-10T23:52:59.367Z,76.76
2018-11-10T23:55:30.148Z,76.62
2018-11-10T23:58:01.168Z,76.50
